Time;durP1;ratioP1;P1;durP2;ratioP2;P2;SDS_P1;SDS_P2;PMS_P1;PMS_P2;Temp;Humidity;BMP_temperature;BMP_pressure;BME280_temperature;BME280_humidity;BME280_pressure;Samples;Min_cycle;Max_cycle;Signal;HPM_P1;HPM_P2
2021/03/25 00:01:46;;;;;;;55.55;23.50;;;;;;;6.70;60.91;100855.19;8849934;33;21512;-74
2021/03/25 00:06:51;;;;;;;50.78;23.80;;;;;;;6.60;61.16;100849.50;8851267;33;20238;-74
2021/03/25 00:11:54;;;;;;;62.00;25.20;;;;;;;6.58;61.47;100854.94;8847456;33;20662;-73
2021/03/25 00:16:57;;;;;;;53.35;23.83;;;;;;;6.63;61.27;100846.66;8850175;33;20237;-74
2021/03/25 00:21:59;;;;;;;56.05;24.25;;;;;;;6.59;61.55;100845.97;8851880;33;20225;-74
2021/03/25 00:27:01;;;;;;;56.95;24.83;;;;;;;6.67;61.52;100845.56;8851355;33;20242;-74
2021/03/25 00:32:06;;;;;;;57.05;25.70;;;;;;;6.74;61.38;100841.56;8850806;33;20221;-73
2021/03/25 00:37:09;;;;;;;56.35;25.02;;;;;;;6.75;61.12;100845.97;8848582;33;20230;-74
2021/03/25 00:42:11;;;;;;;63.08;24.40;;;;;;;6.48;61.44;100847.56;8849296;33;20233;-74
2021/03/25 00:47:14;;;;;;;55.83;24.90;;;;;;;6.43;61.42;100847.81;8851007;33;20230;-75
2021/03/25 00:52:17;;;;;;;52.75;23.50;;;;;;;6.26;61.46;100838.06;8850303;33;20225;-73
2021/03/25 00:57:20;;;;;;;50.67;23.27;;;;;;;6.11;61.91;100836.25;8849119;33;20283;-74
2021/03/25 01:02:23;;;;;;;58.88;23.98;;;;;;;5.97;61.98;100836.16;8846724;33;21557;-75
2021/03/25 01:07:26;;;;;;;56.50;25.40;;;;;;;5.76;62.35;100832.84;8850247;33;20288;-75
2021/03/25 01:12:29;;;;;;;62.47;26.08;;;;;;;5.90;62.68;100820.50;8848802;33;20888;-74
2021/03/25 01:17:34;;;;;;;59.65;25.38;;;;;;;6.01;62.56;100819.06;8850161;33;20230;-74
2021/03/25 01:22:36;;;;;;;57.25;25.52;;;;;;;5.84;62.71;100817.28;8869889;33;20279;-74
2021/03/25 01:27:39;;;;;;;53.25;23.65;;;;;;;5.71;63.32;100809.09;8850022;33;21355;-74
2021/03/25 01:32:42;;;;;;;60.90;26.25;;;;;;;5.76;63.91;100811.50;8872921;33;20221;-74
2021/03/25 01:37:48;;;;;;;61.10;25.45;;;;;;;5.87;63.89;100802.00;8849347;33;20243;-74
2021/03/25 01:42:50;;;;;;;56.38;25.88;;;;;;;5.89;63.87;100794.75;8855142;33;20364;-74
2021/03/25 01:47:54;;;;;;;58.20;26.98;;;;;;;5.82;63.95;100790.72;8854489;33;20687;-74
2021/03/25 01:53:14;;;;;;;61.60;26.48;;;;;;;5.74;63.82;100779.63;8853899;33;20222;-74
2021/03/25 01:58:59;;;;;;;61.72;27.35;;;;;;;5.50;64.32;100776.47;8852569;33;21430;-74
2021/03/25 02:04:33;;;;;;;62.35;28.65;;;;;;;5.48;64.46;100779.19;8879745;33;20278;-74
2021/03/25 02:09:53;;;;;;;84.10;33.70;;;;;;;5.40;65.04;100768.13;8888654;33;20324;-74
2021/03/25 02:15:24;;;;;;;75.40;32.22;;;;;;;5.48;64.78;100765.88;8914193;33;20221;-74
2021/03/25 02:21:14;;;;;;;67.25;29.42;;;;;;;5.36;64.77;100761.22;8887162;33;20229;-74
2021/03/25 02:26:28;;;;;;;60.92;26.73;;;;;;;5.31;64.74;100765.06;8860750;33;20233;-74
2021/03/25 02:31:35;;;;;;;67.93;29.95;;;;;;;5.13;64.55;100777.53;8892078;33;20225;-73
2021/03/25 02:36:46;;;;;;;51.80;24.25;;;;;;;4.93;64.18;100783.88;8888660;33;20246;-74
2021/03/25 02:41:57;;;;;;;53.13;22.77;;;;;;;4.60;64.54;100788.16;8876704;33;21477;-74
2021/03/25 02:47:08;;;;;;;54.20;24.90;;;;;;;4.45;65.17;100780.94;8912568;33;20271;-73
2021/03/25 02:52:17;;;;;;;67.22;26.95;;;;;;;4.58;65.82;100774.06;8913648;33;20221;-74
2021/03/25 02:57:33;;;;;;;58.72;26.73;;;;;;;4.38;66.09;100776.84;8913991;33;20235;-74
2021/03/25 03:02:41;;;;;;;56.53;25.92;;;;;;;4.41;66.33;100790.00;8888154;33;20296;-74
2021/03/25 03:08:11;;;;;;;60.40;26.30;;;;;;;4.33;66.14;100786.84;8913233;33;20236;-74
2021/03/25 03:13:17;;;;;;;62.90;25.75;;;;;;;4.20;66.11;100785.69;8887916;33;21389;-74
2021/03/25 03:18:27;;;;;;;59.30;25.83;;;;;;;4.17;66.41;100779.63;8888331;33;20225;-74
2021/03/25 03:23:39;;;;;;;60.20;26.55;;;;;;;4.16;66.46;100777.03;8913477;33;20221;-74
2021/03/25 03:28:46;;;;;;;62.60;24.08;;;;;;;4.22;66.94;100775.88;8912785;33;20218;-73
2021/03/25 03:34:15;;;;;;;62.67;25.33;;;;;;;4.38;66.88;100776.84;8912634;33;20394;-74
2021/03/25 03:39:24;;;;;;;60.80;26.13;;;;;;;4.42;66.95;100770.44;8912701;33;20803;-74
2021/03/25 03:44:34;;;;;;;60.63;25.75;;;;;;;4.58;67.27;100763.44;8887053;33;20431;-74
2021/03/25 03:49:44;;;;;;;64.37;27.43;;;;;;;4.70;66.87;100756.63;8891336;33;20217;-74
2021/03/25 03:54:49;;;;;;;70.35;26.10;;;;;;;4.64;66.45;100770.25;8890884;33;20240;-74
2021/03/25 04:00:01;;;;;;;58.38;24.20;;;;;;;4.43;66.31;100763.31;8886627;33;20264;-74
2021/03/25 04:05:14;;;;;;;51.27;23.13;;;;;;;3.38;67.17;100770.03;8886299;33;20229;-74
2021/03/25 04:10:39;;;;;;;55.10;23.73;;;;;;;3.08;68.61;100766.97;8886929;33;20217;-74
2021/03/25 04:15:55;;;;;;;55.83;24.42;;;;;;;3.13;69.23;100770.28;8910584;33;20225;-74
2021/03/25 04:21:05;;;;;;;52.87;23.73;;;;;;;3.21;69.33;100765.47;8886746;33;20317;-74
2021/03/25 04:26:20;;;;;;;56.17;23.47;;;;;;;3.28;69.75;100766.94;8911494;33;20228;-74
2021/03/25 04:31:22;;;;;;;59.40;25.53;;;;;;;3.22;70.32;100778.69;8911683;33;20242;-74
2021/03/25 04:36:40;;;;;;;65.47;25.20;;;;;;;3.33;69.70;100777.34;8911619;33;20818;-74
2021/03/25 04:41:44;;;;;;;65.20;25.93;;;;;;;3.48;69.32;100777.53;8911788;33;20217;-74
2021/03/25 04:46:55;;;;;;;64.03;25.80;;;;;;;3.60;68.85;100772.59;8885850;33;20228;-73
2021/03/25 04:52:01;;;;;;;56.70;25.57;;;;;;;3.46;69.02;100770.56;8911362;33;20255;-74
2021/03/25 04:57:19;;;;;;;57.67;26.60;;;;;;;3.57;69.25;100773.59;8910812;33;20228;-74
2021/03/25 05:02:22;;;;;;;58.90;26.08;;;;;;;3.72;68.97;100778.19;8910789;33;20217;-73
2021/03/25 05:07:30;;;;;;;66.27;28.70;;;;;;;3.78;68.96;100766.41;8911170;33;20266;-74
2021/03/25 05:12:32;;;;;;;69.20;27.57;;;;;;;3.90;69.30;100767.66;8910836;33;20845;-74
2021/03/25 05:17:48;;;;;;;60.87;26.53;;;;;;;4.07;68.79;100775.66;8854703;33;20218;-74
2021/03/25 05:23:06;;;;;;;65.90;27.83;;;;;;;4.06;68.20;100776.63;8856722;33;20798;-75
2021/03/25 05:28:19;;;;;;;56.17;26.63;;;;;;;4.04;68.09;100783.78;8856005;33;20222;-75
2021/03/25 05:33:26;;;;;;;63.33;28.33;;;;;;;4.17;67.82;100784.94;8856072;33;20222;-74
2021/03/25 05:38:29;;;;;;;60.33;26.87;;;;;;;4.18;67.91;100777.81;8856146;33;20221;-74
2021/03/25 05:44:28;;;;;;;63.07;28.77;;;;;;;4.17;67.96;100790.25;8855790;33;20234;-75
2021/03/25 05:49:37;;;;;;;67.83;28.33;;;;;;;4.36;67.59;100784.91;8855511;33;20279;-73
2021/03/25 05:54:56;;;;;;;56.20;28.02;;;;;;;4.46;67.33;100787.13;8830353;33;20226;-74
2021/03/25 06:00:11;;;;;;;65.80;27.17;;;;;;;4.57;67.33;100787.44;8856220;33;20229;-74
2021/03/25 06:05:17;;;;;;;66.35;27.95;;;;;;;4.76;66.60;100790.06;8855218;33;20701;-75
2021/03/25 06:10:35;;;;;;;68.17;28.50;;;;;;;4.88;66.50;100789.41;8856169;33;20229;-75
2021/03/25 06:16:07;;;;;;;74.90;28.17;;;;;;;4.80;66.14;100796.94;8885993;33;20619;-75
2021/03/25 06:21:18;;;;;;;59.75;26.38;;;;;;;4.68;67.54;100798.41;8916846;33;20220;-75
2021/03/25 06:26:30;;;;;;;69.25;30.83;;;;;;;5.14;66.91;100798.78;8914410;33;20256;-76
2021/03/25 06:31:49;;;;;;;72.13;31.73;;;;;;;5.49;66.25;100809.41;8890417;33;20224;-75
2021/03/25 06:37:04;;;;;;;86.00;46.70;;;;;;;5.81;65.38;100826.31;8915300;33;20731;-75
2021/03/25 06:42:16;;;;;;;54.25;23.13;;;;;;;5.06;65.61;100833.78;8915471;33;20680;-76
2021/03/25 06:47:34;;;;;;;54.88;24.52;;;;;;;5.01;66.40;100834.97;8915116;33;20253;-76
2021/03/25 06:52:38;;;;;;;56.78;25.58;;;;;;;5.19;66.88;100823.38;8915185;33;20906;-75
2021/03/25 06:57:53;;;;;;;56.03;24.65;;;;;;;5.81;65.86;100822.78;8915404;33;20226;-75
2021/03/25 07:02:57;;;;;;;61.65;30.05;;;;;;;6.03;64.53;100828.66;8914870;33;20217;-76
2021/03/25 07:08:08;;;;;;;60.40;26.75;;;;;;;5.74;65.04;100827.59;8914635;33;20237;-75
2021/03/25 07:13:18;;;;;;;57.85;28.58;;;;;;;5.86;65.62;100831.41;8913965;33;20229;-74
2021/03/25 07:18:34;;;;;;;55.78;24.85;;;;;;;6.21;64.01;100829.47;8897895;33;20221;-75
2021/03/25 07:23:43;;;;;;;56.35;25.90;;;;;;;6.26;64.46;100838.06;8914570;33;20214;-75
2021/03/25 07:29:03;;;;;;;66.82;27.40;;;;;;;6.59;63.56;100843.31;8913689;33;20238;-74
2021/03/25 07:34:07;;;;;;;52.80;25.23;;;;;;;6.70;62.84;100840.03;8913758;33;20316;-73
2021/03/25 07:39:09;;;;;;;26.77;11.90;;;;;;;6.99;63.77;100840.16;8913283;33;20224;-72
2021/03/25 07:44:39;;;;;;;51.20;22.50;;;;;;;7.77;62.25;100848.81;8913996;33;20733;-73
2021/03/25 07:50:23;;;;;;;50.47;23.83;;;;;;;8.17;60.21;100840.94;8913939;33;20687;-72
2021/03/25 07:55:28;;;;;;;50.80;23.33;;;;;;;8.45;59.04;100845.41;8913619;33;20275;-74
2021/03/25 08:00:34;;;;;;;51.20;23.92;;;;;;;8.73;57.99;100851.66;8914211;33;20232;-74
2021/03/25 08:05:38;;;;;;;52.85;25.45;;;;;;;8.93;57.77;100848.50;8884609;33;20221;-72
2021/03/25 08:10:43;;;;;;;50.15;24.27;;;;;;;9.00;57.44;100849.84;8899811;33;20217;-74
2021/03/25 08:15:48;;;;;;;54.95;26.30;;;;;;;8.88;57.51;100853.31;8855133;33;20273;-74
2021/03/25 08:21:02;;;;;;;62.25;27.77;;;;;;;8.87;57.83;100846.25;8852732;33;20226;-73
2021/03/25 08:26:11;;;;;;;62.17;27.25;;;;;;;8.92;57.70;100835.25;8852635;33;20226;-73
2021/03/25 08:31:32;;;;;;;62.75;26.95;;;;;;;9.05;57.63;100844.13;8853066;33;20214;-74
2021/03/25 08:36:52;;;;;;;62.60;27.38;;;;;;;9.05;57.54;100846.81;8852760;33;20268;-73
2021/03/25 08:42:03;;;;;;;65.10;27.73;;;;;;;9.34;57.36;100852.03;8901253;33;20272;-73
2021/03/25 08:47:18;;;;;;;73.95;30.30;;;;;;;9.47;57.04;100851.09;8918692;33;20225;-73
2021/03/25 08:52:22;;;;;;;65.43;30.90;;;;;;;9.41;57.15;100856.88;8914413;33;20221;-73
2021/03/25 08:57:29;;;;;;;64.60;28.33;;;;;;;9.44;57.62;100855.81;8888092;33;20217;-73
2021/03/25 09:02:37;;;;;;;66.57;28.98;;;;;;;9.63;56.99;100853.56;8913901;33;20217;-72
2021/03/25 09:07:40;;;;;;;76.95;30.13;;;;;;;10.12;56.27;100847.47;8916449;33;20213;-73
2021/03/25 09:12:42;;;;;;;73.35;30.67;;;;;;;10.67;54.75;100852.44;8844329;33;20222;-73
2021/03/25 09:17:54;;;;;;;76.32;31.10;;;;;;;11.30;53.88;100854.00;8857715;33;20221;-73
2021/03/25 09:22:58;;;;;;;71.45;31.20;;;;;;;11.33;52.38;100844.81;8856895;33;20271;-73
2021/03/25 09:28:03;;;;;;;68.18;30.38;;;;;;;11.35;52.47;100848.22;8857054;33;20399;-73
2021/03/25 09:33:43;;;;;;;70.95;32.42;;;;;;;11.63;52.21;100839.75;8858087;33;20292;-73
2021/03/25 09:38:49;;;;;;;65.35;30.20;;;;;;;11.77;51.81;100841.34;8857117;33;20240;-73
2021/03/25 09:43:53;;;;;;;64.78;31.05;;;;;;;12.15;51.60;100846.38;8856741;33;20214;-73
2021/03/25 09:49:15;;;;;;;73.82;32.00;;;;;;;12.23;51.06;100836.81;8856768;33;20222;-73
2021/03/25 09:54:23;;;;;;;68.40;30.88;;;;;;;12.43;51.21;100832.53;8856259;33;20214;-73
2021/03/25 09:59:50;;;;;;;68.88;33.70;;;;;;;12.56;50.64;100838.59;8715004;33;20193;-73
2021/03/25 10:05:17;;;;;;;67.53;30.98;;;;;;;11.92;51.06;100834.72;8620795;33;20896;-73
2021/03/25 10:10:38;;;;;;;64.80;31.48;;;;;;;12.00;50.78;100831.44;8664818;33;20458;-73
2021/03/25 10:15:59;;;;;;;66.78;30.98;;;;;;;11.98;50.63;100832.53;8648193;33;20178;-74
2021/03/25 10:21:07;;;;;;;67.15;32.75;;;;;;;12.34;50.47;100832.31;8663970;33;20201;-73
2021/03/25 10:26:29;;;;;;;77.35;33.05;;;;;;;13.13;48.84;100828.47;8675115;33;20409;-74
2021/03/25 10:31:44;;;;;;;72.65;32.67;;;;;;;13.63;47.84;100820.59;8678498;33;20405;-73
2021/03/25 10:36:52;;;;;;;67.93;33.38;;;;;;;13.81;46.07;100810.91;8678107;33;20377;-73
2021/03/25 10:41:57;;;;;;;64.18;32.88;;;;;;;13.42;46.73;100816.09;8679155;33;20166;-74
2021/03/25 10:47:07;;;;;;;73.93;32.42;;;;;;;13.75;46.34;100803.34;8679019;33;20474;-74
2021/03/25 10:52:19;;;;;;;67.22;31.95;;;;;;;14.13;46.24;100807.19;8674896;33;20131;-74
2021/03/25 10:57:26;;;;;;;67.57;32.20;;;;;;;14.24;45.04;100796.28;8665051;33;20234;-74
2021/03/25 11:02:38;;;;;;;67.80;33.42;;;;;;;14.07;45.05;100792.41;8677115;33;20397;-74
2021/03/25 11:07:44;;;;;;;70.68;33.90;;;;;;;14.12;45.83;100791.97;8679898;33;20173;-74
2021/03/25 11:12:55;;;;;;;70.93;33.65;;;;;;;14.43;45.84;100783.84;8680515;33;20471;-74
2021/03/25 11:17:57;;;;;;;72.93;33.95;;;;;;;14.77;45.51;100776.19;8655805;33;20422;-73
2021/03/25 11:23:00;;;;;;;64.13;32.33;;;;;;;15.24;44.06;100774.41;8679097;33;20182;-75
2021/03/25 11:28:07;;;;;;;67.60;32.45;;;;;;;16.56;41.29;100775.19;8668099;33;20178;-74
2021/03/25 11:33:37;;;;;;;64.72;32.83;;;;;;;17.32;39.61;100770.25;8677369;33;21001;-74
2021/03/25 11:38:44;;;;;;;63.67;32.17;;;;;;;17.27;39.24;100770.72;8676684;33;20593;-74
2021/03/25 11:43:56;;;;;;;61.35;30.48;;;;;;;17.22;39.71;100759.47;8679223;33;20186;-75
2021/03/25 11:49:04;;;;;;;57.67;29.95;;;;;;;17.72;38.34;100760.63;8680168;33;20143;-74
2021/03/25 11:54:29;;;;;;;59.83;29.85;;;;;;;19.12;36.11;100754.56;8676579;33;20174;-74
2021/03/25 11:59:38;;;;;;;53.97;27.90;;;;;;;18.48;36.49;100754.31;8680315;33;21379;-74
2021/03/25 12:04:40;;;;;;;57.35;29.60;;;;;;;18.68;35.98;100749.41;8681990;33;20399;-74
2021/03/25 12:10:01;;;;;;;57.70;29.55;;;;;;;16.97;38.99;100747.56;8683633;33;21545;-72
2021/03/25 12:15:04;;;;;;;58.05;29.80;;;;;;;16.08;40.71;100753.78;8682197;33;20511;-72
2021/03/25 12:20:08;;;;;;;65.10;29.83;;;;;;;15.90;41.43;100751.00;8687273;33;20443;-73
2021/03/25 12:25:14;;;;;;;53.38;27.48;;;;;;;16.37;40.69;100748.19;8670885;33;20420;-72
2021/03/25 12:30:19;;;;;;;63.30;29.50;;;;;;;16.25;42.26;100749.38;8659321;33;20644;-73
2021/03/25 12:35:24;;;;;;;59.38;28.77;;;;;;;18.99;38.44;100728.69;8684629;33;20401;-74
2021/03/25 12:40:29;;;;;;;52.65;29.42;;;;;;;16.46;39.68;100731.00;8686174;33;20408;-75
2021/03/25 12:45:37;;;;;;;56.80;30.63;;;;;;;16.53;41.48;100729.38;8687687;33;20179;-72
2021/03/25 12:50:40;;;;;;;59.67;30.73;;;;;;;17.33;39.82;100731.22;8664057;33;20452;-73
2021/03/25 12:55:43;;;;;;;57.30;29.42;;;;;;;18.72;36.77;100718.97;8686475;33;21014;-72
2021/03/25 13:00:47;;;;;;;52.95;29.85;;;;;;;17.34;38.64;100712.06;8687447;33;20186;-73
2021/03/25 13:06:02;;;;;;;65.03;32.10;;;;;;;17.96;39.47;100710.97;8689528;33;20419;-72
2021/03/25 13:11:07;;;;;;;58.70;31.02;;;;;;;19.82;35.37;100711.13;8682454;33;20752;-74
2021/03/25 13:16:10;;;;;;;61.50;31.23;;;;;;;20.24;34.54;100709.91;8663164;33;20661;-74
2021/03/25 13:21:13;;;;;;;50.63;24.42;;;;;;;21.29;32.85;100701.06;8665168;33;20182;-73
2021/03/25 13:26:17;;;;;;;57.33;29.95;;;;;;;18.40;36.77;100705.34;8630605;33;20201;-73
2021/03/25 13:31:19;;;;;;;56.03;28.98;;;;;;;18.02;37.04;100702.19;8638150;33;20461;-73
2021/03/25 13:36:21;;;;;;;48.00;23.58;;;;;;;18.94;35.04;100697.56;8618609;33;20641;-73
2021/03/25 13:41:24;;;;;;;63.15;30.10;;;;;;;19.29;35.02;100698.19;8623714;33;20189;-73
2021/03/25 13:46:26;;;;;;;57.95;29.55;;;;;;;19.15;36.66;100699.75;8625286;33;20829;-73
2021/03/25 13:51:29;;;;;;;55.83;29.33;;;;;;;18.68;36.74;100698.56;8623619;33;20962;-72
2021/03/25 13:56:32;;;;;;;58.00;30.38;;;;;;;18.52;36.69;100710.28;8627868;33;20155;-72
2021/03/25 14:01:34;;;;;;;58.35;30.20;;;;;;;20.93;33.79;100701.72;8624860;33;20151;-73
2021/03/25 14:06:37;;;;;;;54.67;28.52;;;;;;;20.69;33.84;100710.97;8624540;33;20521;-73
2021/03/25 14:11:40;;;;;;;60.67;31.27;;;;;;;17.79;38.94;100710.91;8620342;33;20403;-73
2021/03/25 14:16:42;;;;;;;61.45;30.60;;;;;;;19.29;36.52;100712.66;8632968;33;20178;-73
2021/03/25 14:21:44;;;;;;;55.15;29.23;;;;;;;17.31;38.46;100697.97;8679110;33;20603;-73
2021/03/25 14:26:47;;;;;;;49.95;27.70;;;;;;;18.56;36.87;100706.19;8674760;33;20622;-73
2021/03/25 14:31:50;;;;;;;51.25;27.80;;;;;;;19.40;35.11;100701.38;8672192;33;20581;-72
2021/03/25 14:36:52;;;;;;;47.05;26.00;;;;;;;17.47;38.48;100698.91;8675834;33;20185;-72
2021/03/25 14:41:56;;;;;;;44.40;22.13;;;;;;;17.73;37.64;100697.13;8679570;33;20407;-73
2021/03/25 14:46:58;;;;;;;52.92;28.02;;;;;;;18.21;37.10;100701.91;8678228;33;20414;-73
2021/03/25 14:52:01;;;;;;;56.72;29.00;;;;;;;18.93;35.80;100695.88;8676751;33;20162;-73
2021/03/25 14:57:05;;;;;;;50.33;28.08;;;;;;;19.15;36.52;100702.47;8677440;33;20421;-72
2021/03/25 15:02:07;;;;;;;50.88;27.05;;;;;;;17.60;38.73;100703.88;8681375;33;20413;-72
2021/03/25 15:07:10;;;;;;;53.72;28.52;;;;;;;15.40;42.25;100708.88;8679034;33;20265;-72
2021/03/25 15:12:13;;;;;;;55.30;28.60;;;;;;;15.30;43.18;100707.19;8670964;33;20445;-73
2021/03/25 15:17:16;;;;;;;58.13;29.42;;;;;;;15.25;43.20;100694.97;8650923;33;20279;-72
2021/03/25 15:22:18;;;;;;;54.88;29.60;;;;;;;15.84;42.46;100692.00;8535397;33;20429;-74
2021/03/25 15:27:21;;;;;;;53.97;26.67;;;;;;;15.44;41.53;100699.47;8543712;33;20698;-75
2021/03/25 15:32:24;;;;;;;53.42;28.92;;;;;;;15.62;42.17;100694.13;8544979;33;20195;-74
2021/03/25 15:37:26;;;;;;;54.55;27.88;;;;;;;14.95;42.88;100689.78;8592442;33;20459;-75
2021/03/25 15:42:29;;;;;;;53.42;27.85;;;;;;;14.79;43.40;100701.19;8600102;33;20555;-75
2021/03/25 15:47:33;;;;;;;57.13;29.25;;;;;;;14.32;45.06;100707.28;8602919;33;20182;-75
2021/03/25 15:52:36;;;;;;;48.70;27.45;;;;;;;14.59;45.20;100705.75;8615778;33;20158;-76
2021/03/25 15:57:39;;;;;;;50.05;25.92;;;;;;;14.52;43.87;100700.03;8612951;33;20178;-75
2021/03/25 16:02:42;;;;;;;59.40;27.25;;;;;;;14.32;44.29;100701.00;8615941;33;20428;-75
2021/03/25 16:07:44;;;;;;;45.97;21.95;;;;;;;13.48;45.18;100686.03;8619475;33;20148;-74
2021/03/25 16:12:48;;;;;;;44.97;24.25;;;;;;;13.96;44.39;100689.00;8610513;33;20457;-74
2021/03/25 16:17:50;;;;;;;47.40;24.70;;;;;;;14.02;43.51;100689.31;8612733;33;20450;-75
2021/03/25 16:22:53;;;;;;;53.50;25.80;;;;;;;13.60;44.78;100696.72;8615645;33;20981;-75
2021/03/25 16:27:56;;;;;;;50.80;26.20;;;;;;;13.39;46.56;100705.72;8612873;33;20458;-74
2021/03/25 16:32:59;;;;;;;56.30;27.58;;;;;;;13.40;46.07;100703.88;8613969;33;20388;-75
2021/03/25 16:38:04;;;;;;;46.28;26.88;;;;;;;13.24;46.35;100701.63;8602407;33;20136;-74
2021/03/25 16:43:09;;;;;;;53.30;27.95;;;;;;;13.21;46.44;100700.06;8599888;33;21102;-74
2021/03/25 16:48:15;;;;;;;55.17;26.67;;;;;;;13.12;47.02;100708.13;8596905;33;20248;-74
2021/03/25 16:53:19;;;;;;;59.17;29.50;;;;;;;12.99;47.69;100711.84;8595115;33;20179;-74
2021/03/25 16:58:24;;;;;;;53.35;26.98;;;;;;;13.12;47.28;100708.13;8592422;33;20744;-75
2021/03/25 17:03:27;;;;;;;57.15;29.65;;;;;;;13.15;47.44;100711.38;8596871;33;20412;-75
2021/03/25 17:08:32;;;;;;;58.13;28.42;;;;;;;13.01;47.85;100725.22;8593879;33;20182;-75
2021/03/25 17:13:39;;;;;;;56.05;28.67;;;;;;;13.14;47.72;100715.09;8602170;33;20187;-75
2021/03/25 17:18:55;;;;;;;56.42;29.92;;;;;;;13.02;48.32;100727.75;8600415;33;20178;-74
2021/03/25 17:23:57;;;;;;;54.53;28.05;;;;;;;13.09;48.87;100724.56;8602376;33;20475;-75
2021/03/25 17:29:01;;;;;;;54.13;28.75;;;;;;;12.71;49.61;100728.69;8601620;33;20566;-75
2021/03/25 17:34:03;;;;;;;29.35;15.85;;;;;;;11.95;51.27;100750.19;8598229;33;20415;-74
2021/03/25 17:39:06;;;;;;;34.60;16.90;;;;;;;11.86;52.07;100749.09;8600979;33;20881;-74
2021/03/25 17:44:10;;;;;;;30.20;15.57;;;;;;;11.89;52.09;100748.00;8656665;33;20718;-74
2021/03/25 17:49:12;;;;;;;25.42;14.80;;;;;;;11.64;52.65;100758.03;8656945;33;20503;-74
2021/03/25 17:54:14;;;;;;;26.42;13.90;;;;;;;11.60;53.29;100761.97;8613601;33;20428;-75
2021/03/25 17:59:19;;;;;;;25.85;14.07;;;;;;;11.67;54.28;100765.84;8611013;33;20152;-75
2021/03/25 18:04:21;;;;;;;26.27;15.07;;;;;;;11.53;54.82;100771.47;8595696;33;20457;-76
2021/03/25 18:09:24;;;;;;;28.40;15.35;;;;;;;10.89;57.31;100771.06;8604782;33;20170;-76
2021/03/25 18:14:27;;;;;;;29.88;17.30;;;;;;;11.16;57.49;100784.25;8596919;33;20415;-76
2021/03/25 18:19:29;;;;;;;33.60;17.00;;;;;;;10.83;59.29;100793.88;8643244;33;20420;-75
2021/03/25 18:24:31;;;;;;;33.50;18.77;;;;;;;10.71;63.62;100793.00;8648910;33;21055;-75
2021/03/25 18:29:34;;;;;;;33.05;17.13;;;;;;;10.07;68.34;100805.81;8648790;33;20983;-76
2021/03/25 18:34:36;;;;;;;32.58;18.95;;;;;;;9.77;71.57;100800.78;8650678;33;20145;-76
2021/03/25 18:39:40;;;;;;;44.83;22.17;;;;;;;9.64;73.88;100806.16;8621478;33;20408;-76
2021/03/25 18:44:43;;;;;;;39.80;19.42;;;;;;;9.71;75.57;100810.13;8622388;33;20446;-76
2021/03/25 18:49:45;;;;;;;39.15;20.10;;;;;;;9.69;76.09;100815.59;8631187;33;21275;-76
2021/03/25 18:54:50;;;;;;;36.67;20.33;;;;;;;9.75;75.48;100808.94;8632103;33;20444;-75
2021/03/25 18:59:53;;;;;;;42.47;19.17;;;;;;;9.84;76.05;100808.25;8645369;33;20406;-75
2021/03/25 19:04:55;;;;;;;36.72;19.05;;;;;;;9.76;75.38;100815.16;8633345;33;20441;-75
2021/03/25 19:09:57;;;;;;;37.42;19.13;;;;;;;9.68;75.17;100813.00;8591033;33;20432;-74
2021/03/25 19:15:00;;;;;;;39.30;19.25;;;;;;;9.75;75.27;100813.44;8587178;33;21277;-75
2021/03/25 19:20:04;;;;;;;38.45;19.65;;;;;;;9.76;74.44;100817.81;8627930;33;20134;-75
2021/03/25 19:25:08;;;;;;;30.60;17.52;;;;;;;9.69;74.36;100825.47;8641319;33;20162;-75
2021/03/25 19:30:13;;;;;;;34.17;19.58;;;;;;;9.75;74.22;100830.38;8644789;33;20955;-75
2021/03/25 19:35:18;;;;;;;38.00;19.48;;;;;;;9.76;73.30;100837.47;8631406;33;20425;-75
2021/03/25 19:40:23;;;;;;;39.85;19.23;;;;;;;9.78;74.04;100843.59;8648279;33;21266;-75
2021/03/25 19:45:27;;;;;;;36.55;18.92;;;;;;;9.83;74.88;100841.44;8645005;33;20512;-75
2021/03/25 19:50:30;;;;;;;45.65;21.33;;;;;;;9.98;75.92;100839.50;8644124;33;20562;-74
2021/03/25 19:55:34;;;;;;;36.00;20.05;;;;;;;9.93;74.82;100844.38;8650269;33;20260;-75
2021/03/25 20:00:37;;;;;;;37.47;18.73;;;;;;;9.91;73.71;100841.78;8652481;33;20150;-75
2021/03/25 20:05:43;;;;;;;37.45;18.15;;;;;;;9.77;72.77;100841.88;8655249;33;20182;-76
2021/03/25 20:10:47;;;;;;;35.45;17.77;;;;;;;9.77;71.76;100838.34;8659074;33;20492;-75
2021/03/25 20:15:52;;;;;;;33.30;17.33;;;;;;;9.77;72.12;100841.88;8656400;33;20511;-75
2021/03/25 20:20:57;;;;;;;33.35;17.23;;;;;;;9.80;72.92;100841.66;8657860;33;20194;-75
2021/03/25 20:26:00;;;;;;;35.58;16.98;;;;;;;9.81;72.37;100842.50;8653690;33;20845;-74
2021/03/25 20:31:03;;;;;;;32.50;17.27;;;;;;;9.82;72.18;100839.72;8655290;33;20436;-76
2021/03/25 20:36:09;;;;;;;37.15;17.63;;;;;;;9.84;71.27;100847.66;8649406;33;20221;-74
2021/03/25 20:41:13;;;;;;;30.33;16.33;;;;;;;9.71;69.94;100859.25;8648738;33;20430;-74
2021/03/25 20:46:17;;;;;;;30.60;16.27;;;;;;;9.79;70.80;100856.06;8662542;33;20154;-74
2021/03/25 20:51:19;;;;;;;38.05;16.77;;;;;;;9.80;70.70;100841.66;8659665;33;20165;-75
2021/03/25 20:56:21;;;;;;;29.63;16.88;;;;;;;9.80;70.47;100848.84;8661935;33;20153;-75
2021/03/25 21:01:25;;;;;;;33.95;17.10;;;;;;;9.77;70.75;100843.72;8660101;33;20196;-75
2021/03/25 21:06:27;;;;;;;37.88;18.40;;;;;;;9.74;70.09;100842.09;8657977;33;20706;-76
2021/03/25 21:11:30;;;;;;;32.42;16.85;;;;;;;9.65;69.93;100851.66;8639883;33;20242;-75
2021/03/25 21:16:34;;;;;;;34.85;17.58;;;;;;;9.53;70.14;100849.81;8653941;33;20567;-75
2021/03/25 21:21:37;;;;;;;34.13;17.38;;;;;;;9.47;69.80;100858.28;8662105;33;20414;-76
2021/03/25 21:26:39;;;;;;;34.05;16.50;;;;;;;9.42;71.20;100847.00;8663371;33;20158;-76
2021/03/25 21:31:42;;;;;;;35.88;17.50;;;;;;;9.34;70.74;100839.50;8662529;33;20240;-75
2021/03/25 21:36:45;;;;;;;36.92;18.45;;;;;;;9.32;72.02;100845.91;8663892;33;20332;-75
2021/03/25 21:41:47;;;;;;;34.10;17.80;;;;;;;9.24;71.20;100835.72;8664046;33;21380;-75
2021/03/25 21:46:50;;;;;;;37.97;17.38;;;;;;;9.19;71.59;100840.56;8655004;33;20177;-74
2021/03/25 21:51:53;;;;;;;35.47;17.15;;;;;;;9.13;71.78;100846.31;8656420;33;20455;-75
2021/03/25 21:56:55;;;;;;;34.85;17.58;;;;;;;9.12;72.05;100847.28;8646503;33;20974;-76
2021/03/25 22:01:58;;;;;;;33.15;17.27;;;;;;;9.09;72.73;100840.31;8652512;33;20585;-76
2021/03/25 22:07:01;;;;;;;34.95;17.90;;;;;;;9.05;73.42;100834.31;8658611;33;20532;-76
2021/03/25 22:12:04;;;;;;;39.40;17.83;;;;;;;9.01;73.40;100832.78;8655076;33;20535;-75
2021/03/25 22:17:07;;;;;;;39.22;18.98;;;;;;;8.98;74.56;100824.94;8629788;33;20227;-75
2021/03/25 22:22:09;;;;;;;36.28;18.15;;;;;;;8.96;75.02;100823.34;8655276;33;20181;-76
2021/03/25 22:27:12;;;;;;;36.97;17.10;;;;;;;8.89;75.25;100825.59;8654392;33;20518;-76
2021/03/25 22:32:15;;;;;;;39.17;19.23;;;;;;;8.77;75.11;100821.88;8656261;33;21180;-76
2021/03/25 22:37:17;;;;;;;41.05;19.25;;;;;;;8.74;75.54;100816.72;8655439;33;20440;-76
2021/03/25 22:42:20;;;;;;;39.00;18.80;;;;;;;8.75;75.34;100828.28;8631735;33;20207;-76
2021/03/25 22:47:23;;;;;;;40.95;22.05;;;;;;;8.74;74.63;100826.59;8657374;33;20435;-76
2021/03/25 22:52:26;;;;;;;43.15;20.33;;;;;;;8.65;75.15;100822.72;8649050;33;20264;-75
2021/03/25 22:57:28;;;;;;;41.13;20.00;;;;;;;8.68;74.01;100827.84;8635119;33;20522;-76
2021/03/25 23:02:36;;;;;;;45.00;21.70;;;;;;;8.60;73.68;100832.84;8647870;33;20430;-75
2021/03/25 23:07:39;;;;;;;42.47;20.10;;;;;;;8.56;72.81;100837.56;8651528;33;20190;-76
2021/03/25 23:12:41;;;;;;;40.17;20.73;;;;;;;8.56;72.58;100831.34;8653112;33;20212;-76
2021/03/25 23:17:48;;;;;;;43.42;19.80;;;;;;;8.48;73.27;100837.22;8655864;33;20916;-76
2021/03/25 23:22:56;;;;;;;45.70;21.27;;;;;;;8.37;73.11;100839.69;8655194;33;20645;-74
2021/03/25 23:28:08;;;;;;;46.05;23.00;;;;;;;8.32;73.50;100831.94;8654830;33;20135;-75